Time;durP1;ratioP1;P1;durP2;ratioP2;P2;SDS_P1;SDS_P2;PMS_P1;PMS_P2;Temp;Humidity;BMP_temperature;BMP_pressure;BME280_temperature;BME280_humidity;BME280_pressure;Samples;Min_cycle;Max_cycle;Signal;HPM_P1;HPM_P2
2022/12/20 00:00:58;;;;;;;35.60;22.17;;;4.70;46.80;;;;;;4976860;28;20601;-49
2022/12/20 00:03:24;;;;;;;47.43;24.03;;;4.70;46.80;;;;;;4976593;28;20548;-50
2022/12/20 00:05:49;;;;;;;47.90;22.53;;;4.80;46.30;;;;;;4976783;28;20203;-50
2022/12/20 00:08:15;;;;;;;39.27;22.03;;;4.70;46.50;;;;;;4976653;28;20535;-50
2022/12/20 00:10:43;;;;;;;40.95;21.38;;;4.70;46.70;;;;;;4976621;28;20267;-50
2022/12/20 00:13:10;;;;;;;39.88;23.10;;;4.70;46.70;;;;;;4976458;28;20183;-50
2022/12/20 00:15:36;;;;;;;40.97;20.80;;;4.60;46.50;;;;;;4976620;28;20180;-50
2022/12/20 00:18:01;;;;;;;40.60;22.95;;;4.60;46.70;;;;;;4976311;28;20207;-50
2022/12/20 00:20:28;;;;;;;35.60;21.53;;;4.70;46.70;;;;;;4976487;28;20178;-49
2022/12/20 00:22:54;;;;;;;40.17;21.73;;;4.70;46.60;;;;;;4976259;28;20988;-49
2022/12/20 00:25:20;;;;;;;41.72;22.50;;;4.70;46.40;;;;;;4976460;28;20211;-50
2022/12/20 00:27:47;;;;;;;39.33;22.23;;;4.70;46.40;;;;;;4976440;28;20200;-49
2022/12/20 00:30:14;;;;;;;42.78;23.00;;;4.70;46.60;;;;;;4976321;28;20191;-49
2022/12/20 00:32:40;;;;;;;37.20;21.13;;;4.70;46.70;;;;;;4976287;28;20515;-50
2022/12/20 00:35:06;;;;;;;39.80;22.07;;;4.70;46.60;;;;;;4976267;28;20195;-49
2022/12/20 00:37:32;;;;;;;40.97;22.73;;;4.70;46.70;;;;;;4976167;28;20717;-49
2022/12/20 00:39:58;;;;;;;38.35;20.10;;;4.70;46.70;;;;;;4975997;28;20203;-50
2022/12/20 00:42:24;;;;;;;41.40;22.13;;;4.70;46.60;;;;;;4975971;28;20248;-50
2022/12/20 00:44:49;;;;;;;38.60;22.10;;;4.70;46.60;;;;;;4976049;28;20649;-50
2022/12/20 00:47:15;;;;;;;41.87;24.27;;;4.70;46.70;;;;;;4975942;28;20204;-50
2022/12/20 00:49:41;;;;;;;38.47;22.27;;;4.70;46.70;;;;;;4975988;28;20179;-49
2022/12/20 00:52:07;;;;;;;42.93;22.23;;;4.70;46.70;;;;;;4975859;28;20259;-50
2022/12/20 00:54:33;;;;;;;41.27;21.80;;;4.70;46.70;;;;;;4975794;28;20180;-50
2022/12/20 00:56:58;;;;;;;44.90;22.20;;;4.70;46.70;;;;;;4975759;28;20428;-49
2022/12/20 00:59:24;;;;;;;41.27;23.67;;;4.60;46.60;;;;;;4975726;28;20310;-49
2022/12/20 01:01:50;;;;;;;36.17;23.33;;;4.70;46.70;;;;;;4975630;28;20168;-50
2022/12/20 01:04:16;;;;;;;43.00;24.40;;;4.80;46.70;;;;;;4975604;28;20470;-50
2022/12/20 01:06:42;;;;;;;40.37;20.73;;;4.70;46.80;;;;;;4974890;28;20176;-50
2022/12/20 01:09:09;;;;;;;42.30;23.25;;;4.80;46.70;;;;;;4975572;28;20814;-49
2022/12/20 01:11:36;;;;;;;33.65;19.42;;;4.80;46.80;;;;;;4975581;28;20190;-50
2022/12/20 01:14:06;;;;;;;38.63;23.52;;;4.90;47.10;;;;;;4975248;28;20650;-50
2022/12/20 01:16:36;;;;;;;43.10;21.55;;;4.90;47.00;;;;;;4975607;28;20659;-50
2022/12/20 01:19:02;;;;;;;43.22;23.60;;;4.90;47.10;;;;;;4975313;28;20677;-50
2022/12/20 01:21:28;;;;;;;40.15;23.02;;;4.90;47.20;;;;;;4975345;28;20230;-50
2022/12/20 01:23:54;;;;;;;44.15;23.13;;;5.00;47.30;;;;;;4975098;28;20176;-50
2022/12/20 01:26:23;;;;;;;39.10;22.17;;;5.10;47.10;;;;;;4975402;28;20649;-50
2022/12/20 01:28:52;;;;;;;37.85;22.70;;;5.20;46.90;;;;;;4975126;28;20227;-49
2022/12/20 01:31:19;;;;;;;36.80;21.73;;;5.20;46.80;;;;;;4975129;28;20238;-50
2022/12/20 01:33:46;;;;;;;36.42;23.13;;;5.20;46.80;;;;;;4974965;28;20582;-50
2022/12/20 01:36:18;;;;;;;33.47;19.95;;;5.10;46.70;;;;;;4975084;28;20179;-49
2022/12/20 01:38:44;;;;;;;41.33;21.83;;;5.20;46.80;;;;;;4974984;28;20210;-50
2022/12/20 01:41:15;;;;;;;44.15;22.80;;;5.30;46.80;;;;;;4975060;28;20168;-49
2022/12/20 01:43:54;;;;;;;34.63;20.83;;;5.20;46.50;;;;;;4974832;28;20171;-50
2022/12/20 01:46:22;;;;;;;41.78;23.13;;;5.30;46.80;;;;;;4974984;28;20168;-50
2022/12/20 01:49:18;;;;;;;43.95;24.35;;;5.30;46.90;;;;;;4974730;28;20211;-49
2022/12/20 01:51:48;;;;;;;42.22;23.75;;;5.30;46.70;;;;;;4974885;28;20291;-50
2022/12/20 01:54:24;;;;;;;51.83;24.50;;;5.20;46.80;;;;;;4974807;28;20168;-50
2022/12/20 01:56:56;;;;;;;43.40;22.55;;;5.20;46.80;;;;;;4974676;28;20179;-50
2022/12/20 01:59:22;;;;;;;40.67;20.38;;;5.20;47.10;;;;;;4974680;28;20192;-49
2022/12/20 02:01:48;;;;;;;37.28;20.38;;;5.10;47.40;;;;;;4974552;28;20172;-50
2022/12/20 02:04:14;;;;;;;36.33;22.95;;;5.10;47.50;;;;;;4974487;28;20254;-49
2022/12/20 02:06:40;;;;;;;36.77;20.10;;;5.10;47.50;;;;;;4974502;28;20579;-49
2022/12/20 02:09:07;;;;;;;40.67;22.27;;;5.20;47.40;;;;;;4974516;28;20180;-50
2022/12/20 02:11:54;;;;;;;40.30;22.27;;;5.20;47.30;;;;;;4974436;28;20195;-50
2022/12/20 02:14:31;;;;;;;36.08;21.63;;;5.30;47.00;;;;;;4974405;28;20519;-49
2022/12/20 02:17:16;;;;;;;36.40;22.15;;;5.20;47.30;;;;;;4973460;28;20678;-50
2022/12/20 02:20:00;;;;;;;39.53;22.67;;;5.20;47.20;;;;;;4974234;28;20210;-49
2022/12/20 02:22:59;;;;;;;38.25;20.38;;;5.30;47.10;;;;;;4974030;28;20179;-50
2022/12/20 02:25:37;;;;;;;45.97;25.30;;;5.20;47.10;;;;;;4974344;28;20173;-50
2022/12/20 02:28:15;;;;;;;43.17;21.20;;;5.10;47.50;;;;;;4974052;28;20204;-50
2022/12/20 02:30:44;;;;;;;40.28;20.80;;;5.20;47.20;;;;;;4974219;28;20190;-50
2022/12/20 02:33:13;;;;;;;39.30;23.10;;;5.20;47.00;;;;;;4973897;28;20199;-50
2022/12/20 02:35:39;;;;;;;38.78;22.10;;;5.20;46.90;;;;;;4974000;28;20172;-49
2022/12/20 02:38:30;;;;;;;37.58;22.13;;;5.10;46.90;;;;;;4973858;28;20191;-50
2022/12/20 02:41:17;;;;;;;46.60;22.63;;;5.10;47.00;;;;;;4974190;28;20153;-50
2022/12/20 02:46:33;;;;;;;39.13;21.73;;;5.10;46.90;;;;;;4974056;28;20218;-50
2022/12/20 02:49:06;;;;;;;31.77;16.83;;;5.10;47.00;;;;;;4973804;28;20211;-49
2022/12/20 02:51:33;;;;;;;36.00;22.52;;;5.10;46.90;;;;;;4973720;28;20171;-50
2022/12/20 02:54:00;;;;;;;47.25;21.77;;;5.10;47.20;;;;;;4973493;28;20262;-50
2022/12/20 02:56:42;;;;;;;40.20;20.50;;;5.10;47.30;;;;;;4973593;28;20180;-50
2022/12/20 02:59:49;;;;;;;40.72;21.90;;;5.10;47.10;;;;;;4973583;28;20195;-50
2022/12/20 03:02:15;;;;;;;35.00;20.30;;;5.20;47.00;;;;;;4940563;28;20187;-50
2022/12/20 03:04:42;;;;;;;36.58;20.55;;;5.00;46.90;;;;;;4973572;28;20176;-49
2022/12/20 03:07:15;;;;;;;38.38;23.30;;;5.00;47.60;;;;;;4973506;28;20279;-50
2022/12/20 03:09:43;;;;;;;44.80;22.55;;;4.90;47.80;;;;;;4973511;28;20220;-50
2022/12/20 03:12:11;;;;;;;39.05;22.05;;;5.00;47.80;;;;;;4973183;28;20175;-50
2022/12/20 03:14:38;;;;;;;36.53;21.50;;;5.00;47.20;;;;;;4973458;28;20240;-50
2022/12/20 03:17:05;;;;;;;32.03;18.38;;;5.10;47.30;;;;;;4973236;28;20204;-50
2022/12/20 03:19:31;;;;;;;37.13;22.52;;;5.10;47.30;;;;;;4973346;28;20710;-50
2022/12/20 03:21:57;;;;;;;41.20;20.02;;;5.20;47.30;;;;;;4973159;28;20179;-50
2022/12/20 03:24:24;;;;;;;39.55;22.33;;;5.10;47.20;;;;;;4973296;28;20263;-50
2022/12/20 03:26:49;;;;;;;36.08;22.23;;;5.10;47.30;;;;;;4973178;28;20172;-49
2022/12/20 03:29:15;;;;;;;36.20;19.20;;;5.20;47.10;;;;;;4972971;28;20892;-50
2022/12/20 03:31:41;;;;;;;40.60;22.33;;;5.20;47.10;;;;;;4973238;28;20610;-50
2022/12/20 03:34:07;;;;;;;40.37;21.80;;;5.30;47.60;;;;;;4973126;28;20175;-50
2022/12/20 03:36:33;;;;;;;34.33;19.23;;;5.20;46.80;;;;;;4973265;28;20404;-50
2022/12/20 03:38:59;;;;;;;39.03;21.85;;;5.20;46.90;;;;;;4973013;28;20558;-50
2022/12/20 03:41:25;;;;;;;42.45;22.40;;;5.20;46.70;;;;;;4973094;28;20172;-50
2022/12/20 03:43:51;;;;;;;40.22;21.48;;;5.20;46.90;;;;;;4973006;28;20165;-50
2022/12/20 03:46:17;;;;;;;37.15;22.08;;;5.30;47.00;;;;;;4973111;28;20172;-50
2022/12/20 03:48:43;;;;;;;40.00;21.95;;;5.30;46.80;;;;;;4973059;28;20271;-50
2022/12/20 03:51:09;;;;;;;34.50;21.45;;;5.30;46.70;;;;;;4991165;23;20301;-49
2022/12/20 03:53:35;;;;;;;36.10;22.42;;;5.30;46.50;;;;;;5011408;28;20245;-50
2022/12/20 03:56:01;;;;;;;46.07;22.17;;;5.40;46.50;;;;;;5011984;28;20171;-51
2022/12/20 03:58:27;;;;;;;42.45;23.10;;;5.30;46.60;;;;;;5011922;28;20460;-49
2022/12/20 04:00:53;;;;;;;36.03;21.73;;;5.40;46.40;;;;;;5006884;28;20216;-50
2022/12/20 04:03:18;;;;;;;39.83;22.40;;;5.30;46.50;;;;;;4992218;28;20172;-49
2022/12/20 04:05:44;;;;;;;40.43;22.93;;;5.40;46.30;;;;;;4992389;28;20410;-50
2022/12/20 04:08:10;;;;;;;38.53;19.73;;;5.50;46.40;;;;;;4992370;28;20179;-50
2022/12/20 04:11:14;;;;;;;33.17;20.87;;;5.40;46.20;;;;;;4974894;28;22235;-50
2022/12/20 04:13:21;;;;;;;38.72;20.45;;;5.40;46.30;;;;;;4991903;28;20548;-50
2022/12/20 04:15:47;;;;;;;37.90;20.53;;;5.40;46.50;;;;;;4992266;28;20176;-50
2022/12/20 04:18:12;;;;;;;42.67;20.97;;;5.30;46.50;;;;;;4992188;28;20164;-50
2022/12/20 04:20:38;;;;;;;47.53;21.60;;;5.30;46.30;;;;;;4992211;28;20180;-50
2022/12/20 04:23:04;;;;;;;35.80;21.70;;;5.30;46.70;;;;;;4992021;28;20242;-50
2022/12/20 04:25:29;;;;;;;36.70;20.23;;;5.30;46.50;;;;;;4992138;28;20255;-50
2022/12/20 04:27:55;;;;;;;35.27;21.57;;;5.40;46.70;;;;;;4992078;28;20163;-51
2022/12/20 04:30:21;;;;;;;36.60;21.43;;;5.40;46.60;;;;;;4992144;28;20226;-50
2022/12/20 04:32:47;;;;;;;32.83;20.10;;;5.50;46.60;;;;;;4991941;28;20207;-50
2022/12/20 04:35:13;;;;;;;36.70;20.13;;;5.50;46.60;;;;;;4992125;28;20194;-50
2022/12/20 04:37:38;;;;;;;33.97;19.90;;;5.50;46.50;;;;;;4992037;28;20700;-50
2022/12/20 04:40:05;;;;;;;42.13;20.53;;;5.50;46.40;;;;;;4991964;28;20454;-50
2022/12/20 04:42:31;;;;;;;44.63;21.42;;;5.50;46.70;;;;;;4995018;28;20274;-50
2022/12/20 04:44:57;;;;;;;42.13;22.63;;;5.40;46.70;;;;;;4995526;28;20183;-50
2022/12/20 04:47:23;;;;;;;38.03;18.33;;;5.40;47.00;;;;;;4995567;28;20514;-50
2022/12/20 04:49:48;;;;;;;39.87;20.50;;;5.40;47.10;;;;;;4995451;28;20178;-50
2022/12/20 04:54:58;;;;;;;42.80;22.30;;;5.40;47.10;;;;;;4995300;28;20246;-50
2022/12/20 04:57:24;;;;;;;36.50;20.07;;;5.30;47.30;;;;;;4995288;28;20642;-50
2022/12/20 04:59:50;;;;;;;41.23;21.13;;;5.40;47.30;;;;;;4995181;28;20217;-50
2022/12/20 05:02:16;;;;;;;40.97;21.63;;;5.30;47.30;;;;;;4994917;28;20232;-50
2022/12/20 05:04:42;;;;;;;38.53;21.27;;;5.30;47.80;;;;;;4995128;28;20180;-49
2022/12/20 05:07:07;;;;;;;50.70;23.00;;;5.20;47.70;;;;;;4995174;28;20258;-49
2022/12/20 05:09:33;;;;;;;30.80;19.67;;;5.20;47.90;;;;;;4995045;28;20179;-49
2022/12/20 05:11:59;;;;;;;38.80;21.80;;;5.20;48.00;;;;;;4994730;28;20199;-50
2022/12/20 05:14:25;;;;;;;36.73;19.47;;;5.20;48.10;;;;;;4994997;28;20224;-50
2022/12/20 05:16:50;;;;;;;40.90;25.73;;;5.20;48.00;;;;;;4994955;28;20259;-49
2022/12/20 05:19:16;;;;;;;33.27;18.67;;;5.20;48.40;;;;;;4994777;28;20195;-49
2022/12/20 05:27:10;;;;;;;45.08;21.45;;;5.10;48.70;;;;;;4994841;28;20175;-49
2022/12/20 05:29:35;;;;;;;34.90;20.70;;;5.10;48.80;;;;;;4994761;28;20641;-49
2022/12/20 05:32:01;;;;;;;37.90;19.93;;;5.10;49.00;;;;;;4994702;28;20191;-49
2022/12/20 05:34:27;;;;;;;41.70;17.97;;;5.10;49.00;;;;;;4994624;28;20254;-49
2022/12/20 05:36:52;;;;;;;35.10;20.03;;;5.20;49.00;;;;;;4994458;28;20689;-49
2022/12/20 05:39:18;;;;;;;37.90;21.27;;;5.10;49.10;;;;;;4994485;28;20195;-49
2022/12/20 05:41:44;;;;;;;40.07;21.47;;;5.20;49.10;;;;;;4994316;28;20601;-49
2022/12/20 05:44:10;;;;;;;34.13;18.67;;;5.20;49.20;;;;;;4994441;28;20195;-49
2022/12/20 05:46:35;;;;;;;32.00;18.07;;;5.20;49.30;;;;;;4994393;28;20242;-49
2022/12/20 05:49:01;;;;;;;37.00;19.40;;;5.20;49.40;;;;;;4994346;28;20532;-49
2022/12/20 05:51:27;;;;;;;30.97;18.67;;;5.30;49.20;;;;;;4993857;28;20266;-49
2022/12/20 05:53:52;;;;;;;33.03;19.90;;;5.20;49.20;;;;;;4994277;28;20175;-50
2022/12/20 05:56:18;;;;;;;33.10;20.37;;;5.20;49.20;;;;;;4994242;28;20168;-49
2022/12/20 05:58:44;;;;;;;33.47;19.93;;;5.30;49.00;;;;;;4994065;28;20207;-49
2022/12/20 06:01:09;;;;;;;31.17;18.60;;;5.30;48.90;;;;;;4994079;28;20202;-49
2022/12/20 06:03:37;;;;;;;37.30;20.90;;;5.40;48.70;;;;;;4993864;28;20167;-49
2022/12/20 06:06:03;;;;;;;31.35;18.60;;;5.30;48.80;;;;;;4993898;28;20522;-49
2022/12/20 06:08:29;;;;;;;32.03;19.60;;;5.40;48.50;;;;;;4994020;28;20246;-49
2022/12/20 06:10:55;;;;;;;33.20;20.90;;;5.40;48.50;;;;;;4993880;28;20700;-49
2022/12/20 06:13:21;;;;;;;37.63;20.10;;;5.50;48.10;;;;;;4993716;28;20199;-49
2022/12/20 06:15:47;;;;;;;30.90;18.13;;;5.50;48.00;;;;;;4976600;28;20206;-49
2022/12/20 06:18:12;;;;;;;27.67;17.13;;;5.40;48.00;;;;;;4993941;28;20176;-49
2022/12/20 06:20:38;;;;;;;35.73;19.50;;;5.40;48.50;;;;;;4993494;28;20243;-49
2022/12/20 06:23:05;;;;;;;38.20;18.55;;;5.30;48.20;;;;;;4993447;28;20187;-49
2022/12/20 06:25:30;;;;;;;36.65;20.80;;;5.40;47.90;;;;;;4993560;28;20206;-50
2022/12/20 06:27:57;;;;;;;38.53;20.55;;;5.50;47.80;;;;;;4993621;28;20258;-49
2022/12/20 06:30:23;;;;;;;30.00;18.75;;;5.60;47.50;;;;;;4993503;28;20179;-49
2022/12/20 06:32:48;;;;;;;33.63;19.07;;;5.60;47.40;;;;;;4993248;28;20518;-49
2022/12/20 06:35:14;;;;;;;30.60;19.27;;;5.60;47.40;;;;;;4993316;28;20421;-49
2022/12/20 06:37:41;;;;;;;37.00;21.50;;;5.60;47.00;;;;;;4993371;28;20214;-49
2022/12/20 06:40:12;;;;;;;26.08;15.93;;;5.60;47.20;;;;;;4993396;28;20500;-49
2022/12/20 06:42:38;;;;;;;33.67;19.85;;;5.50;47.00;;;;;;4993027;28;20554;-49
2022/12/20 06:45:04;;;;;;;36.95;21.85;;;5.60;47.10;;;;;;4993269;28;20174;-49
2022/12/20 06:47:30;;;;;;;32.20;17.63;;;5.60;46.90;;;;;;4993166;28;20649;-49
2022/12/20 06:49:56;;;;;;;41.70;23.88;;;5.60;46.90;;;;;;4993078;28;20180;-49
2022/12/20 06:52:23;;;;;;;35.57;20.43;;;5.60;46.90;;;;;;4992729;28;20277;-49
2022/12/20 06:54:48;;;;;;;34.22;18.38;;;5.50;47.00;;;;;;4993100;28;20445;-49
2022/12/20 06:57:14;;;;;;;34.77;19.63;;;5.50;47.00;;;;;;4993085;28;20613;-49
2022/12/20 06:59:40;;;;;;;30.37;18.03;;;5.60;47.20;;;;;;4993120;28;20201;-49
2022/12/20 07:02:06;;;;;;;40.47;21.17;;;5.60;47.00;;;;;;4992666;28;20206;-49
2022/12/20 07:04:31;;;;;;;35.87;21.73;;;5.50;47.10;;;;;;4992404;28;20418;-49
2022/12/20 07:06:57;;;;;;;34.40;20.53;;;5.50;47.10;;;;;;4992894;28;20409;-49
2022/12/20 07:09:23;;;;;;;34.03;19.20;;;5.50;47.30;;;;;;4992934;28;20218;-49
2022/12/20 07:11:49;;;;;;;40.77;21.67;;;5.40;47.10;;;;;;4992670;28;20273;-49
2022/12/20 07:14:14;;;;;;;33.93;19.97;;;5.50;47.20;;;;;;4992695;28;20251;-49
2022/12/20 07:16:42;;;;;;;33.40;19.73;;;5.40;46.90;;;;;;4992656;28;20301;-49
2022/12/20 07:19:11;;;;;;;29.60;18.58;;;5.40;47.00;;;;;;4992768;28;20191;-49
2022/12/20 07:21:37;;;;;;;30.73;18.67;;;5.40;47.20;;;;;;4992582;28;20270;-49
2022/12/20 07:24:03;;;;;;;38.60;20.87;;;5.40;47.00;;;;;;4992567;28;20294;-49
2022/12/20 07:26:28;;;;;;;28.97;17.50;;;5.40;47.20;;;;;;4992636;28;20172;-49
2022/12/20 07:28:54;;;;;;;33.27;20.47;;;5.40;47.00;;;;;;4992643;28;20426;-49
2022/12/20 07:31:20;;;;;;;42.00;21.10;;;5.50;46.90;;;;;;4992581;28;20196;-49
2022/12/20 07:33:45;;;;;;;40.77;19.70;;;5.40;46.90;;;;;;4992370;28;20414;-49
2022/12/20 07:36:14;;;;;;;36.83;20.83;;;5.40;47.00;;;;;;4992576;28;20203;-49
2022/12/20 07:38:40;;;;;;;33.10;20.33;;;5.50;46.70;;;;;;4992491;28;20280;-49
2022/12/20 07:41:12;;;;;;;42.28;21.33;;;5.50;46.60;;;;;;4992442;28;20199;-49
2022/12/20 07:43:38;;;;;;;33.78;20.02;;;5.40;46.70;;;;;;4992208;28;20185;-50
2022/12/20 07:46:06;;;;;;;41.03;21.85;;;5.50;46.50;;;;;;4992671;28;20179;-49
2022/12/20 07:48:32;;;;;;;33.10;20.27;;;5.50;46.30;;;;;;4992433;28;20198;-49
2022/12/20 07:51:01;;;;;;;37.45;21.73;;;5.70;46.00;;;;;;4992269;28;20203;-49
2022/12/20 07:53:30;;;;;;;34.08;21.23;;;5.60;46.50;;;;;;4992273;28;20163;-49
2022/12/20 07:55:59;;;;;;;38.95;22.75;;;5.60;45.60;;;;;;4992378;28;20168;-49
2022/12/20 07:58:26;;;;;;;29.58;19.70;;;5.70;45.90;;;;;;4992176;28;20318;-49
2022/12/20 08:00:52;;;;;;;37.42;20.10;;;5.70;45.60;;;;;;4992226;28;20819;-49
2022/12/20 08:03:22;;;;;;;37.87;21.67;;;5.70;45.60;;;;;;4992062;28;20178;-49
2022/12/20 08:05:52;;;;;;;34.33;19.25;;;5.50;45.70;;;;;;4992281;28;20934;-49
2022/12/20 08:08:19;;;;;;;36.80;21.85;;;5.50;45.70;;;;;;4992327;28;20171;-50
2022/12/20 08:10:45;;;;;;;35.55;22.67;;;5.60;45.50;;;;;;4992184;28;20688;-50
2022/12/20 08:13:11;;;;;;;39.15;25.17;;;5.60;45.10;;;;;;4992033;28;20199;-49
2022/12/20 08:15:37;;;;;;;38.05;22.15;;;5.60;45.30;;;;;;4994471;28;20258;-49
2022/12/20 08:18:05;;;;;;;35.23;20.63;;;5.50;45.50;;;;;;4995934;28;20310;-50
2022/12/20 08:20:31;;;;;;;32.35;19.98;;;5.40;45.10;;;;;;4995564;28;20191;-50
2022/12/20 08:22:56;;;;;;;31.95;19.75;;;5.30;45.40;;;;;;4995695;28;20171;-49
2022/12/20 08:25:22;;;;;;;39.63;23.20;;;5.30;45.60;;;;;;4995782;28;20259;-49
2022/12/20 08:27:48;;;;;;;36.93;22.30;;;5.30;45.60;;;;;;4995843;28;20222;-49
2022/12/20 08:30:14;;;;;;;41.77;25.37;;;5.40;45.40;;;;;;4995738;28;20845;-50
2022/12/20 08:32:40;;;;;;;35.07;20.80;;;5.30;45.70;;;;;;4995468;28;20190;-49
2022/12/20 08:35:06;;;;;;;39.50;21.20;;;5.30;46.60;;;;;;4995779;28;20430;-49
2022/12/20 08:37:32;;;;;;;39.75;22.05;;;5.30;45.60;;;;;;4995781;28;20410;-50
2022/12/20 08:39:59;;;;;;;48.10;26.02;;;5.40;45.60;;;;;;4995460;28;20203;-50
2022/12/20 08:42:26;;;;;;;40.08;25.35;;;5.40;45.30;;;;;;4995281;28;20201;-50
2022/12/20 08:44:52;;;;;;;37.80;20.42;;;5.50;45.10;;;;;;4995478;28;20222;-49
2022/12/20 08:47:17;;;;;;;40.70;23.13;;;5.60;45.00;;;;;;4995423;28;20259;-49
2022/12/20 08:49:43;;;;;;;42.23;23.27;;;5.70;44.50;;;;;;4995408;28;20241;-49
2022/12/20 08:52:09;;;;;;;39.77;21.97;;;5.80;44.30;;;;;;4977399;28;20211;-49
2022/12/20 08:54:35;;;;;;;39.92;21.20;;;6.10;44.40;;;;;;4995298;28;20777;-50
2022/12/20 08:57:01;;;;;;;45.90;22.73;;;6.30;43.10;;;;;;4995319;28;20258;-50
2022/12/20 08:59:26;;;;;;;37.50;21.07;;;6.40;42.50;;;;;;4995233;28;20201;-50
2022/12/20 09:01:53;;;;;;;37.73;23.37;;;6.50;42.20;;;;;;4995011;28;20183;-50
2022/12/20 09:04:20;;;;;;;33.10;20.35;;;6.50;42.30;;;;;;4995110;28;20175;-49
2022/12/20 09:06:46;;;;;;;40.63;23.25;;;6.60;41.90;;;;;;4995107;28;20229;-50
2022/12/20 09:09:12;;;;;;;41.13;22.15;;;6.70;42.10;;;;;;4995069;28;20168;-50
2022/12/20 09:11:38;;;;;;;41.37;21.60;;;6.80;41.40;;;;;;4994928;28;20715;-50
2022/12/20 09:14:04;;;;;;;41.00;23.70;;;6.90;41.40;;;;;;4994785;28;20494;-50
2022/12/20 09:16:32;;;;;;;44.35;24.20;;;7.00;40.80;;;;;;4994863;28;20194;-50
2022/12/20 09:18:59;;;;;;;40.08;21.23;;;6.90;40.80;;;;;;4994730;28;20601;-50
2022/12/20 09:21:25;;;;;;;43.20;21.55;;;6.90;40.80;;;;;;4994810;28;20187;-50
2022/12/20 09:23:53;;;;;;;36.63;21.38;;;6.80;40.90;;;;;;4994457;28;20176;-49
2022/12/20 09:26:20;;;;;;;35.45;21.85;;;6.70;41.40;;;;;;4994174;28;20164;-50
2022/12/20 09:28:47;;;;;;;35.92;20.80;;;6.60;41.00;;;;;;4994783;28;20688;-49
2022/12/20 09:31:16;;;;;;;40.30;22.08;;;6.60;41.60;;;;;;4994681;28;20238;-50
2022/12/20 09:33:42;;;;;;;37.70;22.92;;;6.60;41.60;;;;;;4994451;28;20175;-50
2022/12/20 09:36:19;;;;;;;40.45;23.25;;;6.50;41.40;;;;;;4994586;28;20179;-50
2022/12/20 09:38:46;;;;;;;35.55;22.30;;;6.60;42.30;;;;;;4994468;28;20672;-50
2022/12/20 09:41:36;;;;;;;38.58;23.40;;;6.50;41.80;;;;;;4994482;28;20844;-49
2022/12/20 09:44:29;;;;;;;37.65;22.42;;;6.50;41.90;;;;;;4994203;28;20155;-49
2022/12/20 09:47:01;;;;;;;39.40;23.63;;;6.60;41.90;;;;;;4994447;28;20550;-50
2022/12/20 09:49:32;;;;;;;34.90;22.02;;;6.60;41.60;;;;;;4994352;28;20159;-50
2022/12/20 09:52:03;;;;;;;40.55;21.17;;;6.60;41.90;;;;;;4993907;28;20211;-50
2022/12/20 09:54:51;;;;;;;42.67;22.85;;;6.50;41.90;;;;;;4994272;28;20198;-50
2022/12/20 09:57:30;;;;;;;34.90;21.70;;;6.40;41.80;;;;;;4994129;28;20186;-50
2022/12/20 09:59:59;;;;;;;48.25;24.42;;;6.50;42.30;;;;;;4976686;28;20226;-50
2022/12/20 10:02:28;;;;;;;47.03;22.95;;;6.50;42.20;;;;;;4993780;28;20676;-50
2022/12/20 10:04:54;;;;;;;45.72;22.73;;;6.40;41.90;;;;;;4994016;28;20175;-49
2022/12/20 10:07:25;;;;;;;36.10;22.10;;;6.50;42.00;;;;;;4994060;28;20167;-50
2022/12/20 10:10:20;;;;;;;41.92;22.73;;;6.50;42.00;;;;;;4993885;28;20417;-50
2022/12/20 10:12:58;;;;;;;45.92;23.98;;;6.40;42.20;;;;;;4993736;28;20194;-50
2022/12/20 10:15:29;;;;;;;40.40;21.75;;;6.40;42.30;;;;;;4993822;28;20164;-50
2022/12/20 10:18:27;;;;;;;39.97;21.20;;;6.30;42.30;;;;;;4993695;28;20243;-50
2022/12/20 10:21:19;;;;;;;38.38;21.73;;;6.20;42.40;;;;;;4993698;28;20191;-50
2022/12/20 10:24:10;;;;;;;38.08;23.27;;;6.20;42.80;;;;;;4983131;28;20180;-50
2022/12/20 10:26:36;;;;;;;38.85;20.42;;;6.10;42.80;;;;;;4993661;28;20198;-50
2022/12/20 10:29:02;;;;;;;44.33;22.03;;;6.00;43.00;;;;;;4993533;28;20634;-50
2022/12/20 10:31:28;;;;;;;42.20;22.27;;;6.00;43.20;;;;;;4993328;28;20199;-50
2022/12/20 10:33:54;;;;;;;47.70;22.33;;;5.90;43.20;;;;;;4993298;28;20172;-50
2022/12/20 10:36:24;;;;;;;48.15;24.48;;;5.90;43.70;;;;;;4993407;28;20426;-50
2022/12/20 10:38:53;;;;;;;44.90;23.70;;;5.80;43.50;;;;;;4992418;28;20187;-50
2022/12/20 10:41:27;;;;;;;37.75;23.25;;;5.80;43.80;;;;;;4993308;28;20218;-50
2022/12/20 10:44:03;;;;;;;38.05;22.23;;;5.70;43.80;;;;;;4993176;28;20214;-50
2022/12/20 10:46:41;;;;;;;46.88;23.52;;;5.80;43.80;;;;;;4993277;28;20261;-50
2022/12/20 10:49:32;;;;;;;39.70;22.77;;;5.80;43.60;;;;;;4993155;28;20171;-50
2022/12/20 10:52:11;;;;;;;47.10;23.10;;;5.90;44.00;;;;;;4992819;28;20203;-50
2022/12/20 10:54:46;;;;;;;41.05;24.70;;;5.90;43.80;;;;;;4993197;28;20198;-50
2022/12/20 10:57:19;;;;;;;42.10;22.45;;;5.80;43.80;;;;;;4993043;28;20302;-50
2022/12/20 10:59:50;;;;;;;38.90;21.50;;;5.80;43.80;;;;;;4992882;28;20188;-50
2022/12/20 11:02:33;;;;;;;44.08;24.42;;;5.80;44.00;;;;;;4992814;28;20538;-50
2022/12/20 11:05:05;;;;;;;44.05;24.33;;;5.80;44.00;;;;;;4992899;28;20189;-50
2022/12/20 11:18:03;;;;;;;41.28;21.17;;;5.80;44.20;;;;;;4992928;28;20175;-50
2022/12/20 11:20:51;;;;;;;43.00;24.17;;;5.80;44.10;;;;;;4992655;28;20583;-50
2022/12/20 11:23:40;;;;;;;46.10;25.02;;;5.90;44.20;;;;;;4992092;28;20378;-50
2022/12/20 11:26:28;;;;;;;42.10;21.90;;;6.10;44.10;;;;;;4992783;28;20164;-50
2022/12/20 11:29:23;;;;;;;40.72;23.50;;;6.50;43.30;;;;;;4992616;28;20160;-50
2022/12/20 11:32:15;;;;;;;39.80;21.65;;;7.20;42.00;;;;;;4991714;28;20207;-50
2022/12/20 11:35:13;;;;;;;41.00;22.85;;;8.40;39.50;;;;;;4992634;28;20175;-51
2022/12/20 11:38:00;;;;;;;36.15;21.63;;;9.10;37.70;;;;;;4992529;28;20175;-51
2022/12/20 11:40:31;;;;;;;36.75;21.52;;;9.30;37.00;;;;;;4992461;28;20223;-51
2022/12/20 11:43:12;;;;;;;37.65;23.35;;;8.90;36.70;;;;;;4992362;28;20152;-50
2022/12/20 11:46:03;;;;;;;38.33;23.45;;;8.50;37.20;;;;;;4992542;28;20242;-50
2022/12/20 11:48:50;;;;;;;37.85;22.40;;;7.90;38.20;;;;;;4992417;28;20176;-51
2022/12/20 11:51:46;;;;;;;44.13;23.90;;;7.40;39.10;;;;;;4995808;28;20203;-50
2022/12/20 11:54:22;;;;;;;42.60;24.30;;;7.10;39.80;;;;;;4996340;28;20242;-50
2022/12/20 11:56:52;;;;;;;41.38;21.25;;;6.80;40.50;;;;;;4996389;28;20195;-50
2022/12/20 11:59:42;;;;;;;37.97;23.45;;;6.70;40.90;;;;;;4996237;28;20203;-50
2022/12/20 12:02:12;;;;;;;50.90;26.77;;;6.50;41.40;;;;;;4995806;28;20222;-50
2022/12/20 12:04:57;;;;;;;42.38;23.98;;;6.60;41.60;;;;;;4996261;28;20226;-50
2022/12/20 12:07:32;;;;;;;37.13;20.58;;;6.60;41.50;;;;;;4996397;28;20163;-50
2022/12/20 12:10:20;;;;;;;42.08;26.65;;;6.50;41.40;;;;;;4996190;28;20174;-51
2022/12/20 12:12:53;;;;;;;40.72;23.52;;;6.70;41.80;;;;;;4995824;28;20172;-50
2022/12/20 12:15:27;;;;;;;43.22;24.63;;;6.60;41.50;;;;;;4996069;28;20254;-50
2022/12/20 12:18:02;;;;;;;41.88;23.23;;;6.50;41.40;;;;;;4996033;28;20640;-50
2022/12/20 12:20:42;;;;;;;47.15;25.88;;;6.50;41.90;;;;;;4995818;28;20210;-50
2022/12/20 12:23:33;;;;;;;46.40;24.60;;;6.30;42.20;;;;;;4995654;28;20246;-50
2022/12/20 12:26:04;;;;;;;36.85;21.85;;;6.10;42.70;;;;;;4995841;28;20170;-50
2022/12/20 12:28:30;;;;;;;41.72;21.77;;;6.00;42.90;;;;;;4995877;28;20152;-50
2022/12/20 12:31:06;;;;;;;42.67;24.20;;;5.90;43.00;;;;;;4995645;28;20195;-51
2022/12/20 12:33:45;;;;;;;43.42;25.02;;;6.00;43.10;;;;;;4995509;28;20171;-51
2022/12/20 12:36:29;;;;;;;39.78;24.00;;;5.90;43.40;;;;;;4995692;28;20636;-50
2022/12/20 12:38:57;;;;;;;40.20;22.42;;;5.90;43.60;;;;;;4995565;28;20191;-51
2022/12/20 12:41:42;;;;;;;41.78;21.80;;;5.80;43.40;;;;;;4995571;28;20190;-51
2022/12/20 12:44:32;;;;;;;47.72;24.42;;;5.90;43.70;;;;;;4995321;28;20171;-50
2022/12/20 12:47:10;;;;;;;45.88;23.33;;;5.90;43.80;;;;;;4995502;28;20616;-50
2022/12/20 12:49:38;;;;;;;44.03;25.45;;;5.80;43.70;;;;;;4995464;28;20170;-50
2022/12/20 12:52:04;;;;;;;37.88;22.92;;;5.80;43.60;;;;;;4994993;28;20199;-50
2022/12/20 12:54:39;;;;;;;43.70;21.95;;;5.80;43.70;;;;;;4995342;28;20221;-50
2022/12/20 12:57:14;;;;;;;51.53;26.08;;;5.70;43.90;;;;;;4995096;28;20170;-51
2022/12/20 12:59:45;;;;;;;47.13;26.48;;;5.70;43.90;;;;;;4995233;28;20203;-50
2022/12/20 13:02:14;;;;;;;48.25;25.15;;;5.70;44.20;;;;;;4994184;28;20215;-50
2022/12/20 13:05:20;;;;;;;48.47;24.30;;;5.70;43.90;;;;;;4995148;28;20175;-50
2022/12/20 13:07:46;;;;;;;47.00;23.00;;;5.60;43.90;;;;;;4994996;28;20243;-51
2022/12/20 13:10:17;;;;;;;42.37;24.20;;;5.60;44.30;;;;;;4994959;28;20644;-50
2022/12/20 13:13:01;;;;;;;41.13;22.52;;;5.60;44.30;;;;;;4994663;28;20433;-50